Time;durP1;ratioP1;P1;durP2;ratioP2;P2;SDS_P1;SDS_P2;PMS_P1;PMS_P2;Temp;Humidity;BMP_temperature;BMP_pressure;BME280_temperature;BME280_humidity;BME280_pressure;Samples;Min_cycle;Max_cycle;Signal;HPM_P1;HPM_P2
2020/12/12 00:01:56;;;;;;;23.15;11.95;;;;;;;-1.93;92.73;95441.83;1679571;84;21282;-82
2020/12/12 00:04:23;;;;;;;32.70;17.73;;;;;;;-1.93;92.84;95445.72;1679493;85;21298;-82
2020/12/12 00:06:50;;;;;;;47.25;22.55;;;;;;;-1.88;93.04;95430.23;1684496;84;21144;-81
2020/12/12 00:09:17;;;;;;;41.13;22.82;;;;;;;-1.85;93.14;95440.16;1710074;84;21140;-82
2020/12/12 00:11:44;;;;;;;36.88;21.95;;;;;;;-1.80;93.22;95442.09;1710307;82;21550;-82
2020/12/12 00:14:11;;;;;;;33.40;19.37;;;;;;;-1.81;93.09;95441.81;1710131;84;21546;-82
2020/12/12 00:16:38;;;;;;;43.17;22.52;;;;;;;-1.80;93.00;95448.08;1710094;84;21558;-82
2020/12/12 00:19:05;;;;;;;49.03;26.62;;;;;;;-1.84;92.97;95444.84;1710190;84;21608;-82
2020/12/12 00:21:32;;;;;;;45.98;27.02;;;;;;;-1.87;92.92;95447.39;1709994;82;21159;-82
2020/12/12 00:23:59;;;;;;;57.10;30.75;;;;;;;-1.87;92.93;95451.29;1710053;84;21546;-82
2020/12/12 00:26:26;;;;;;;55.05;28.23;;;;;;;-2.03;92.31;95455.89;1710193;84;21538;-82
2020/12/12 00:28:53;;;;;;;53.28;27.55;;;;;;;-2.21;92.04;95450.31;1710066;84;21159;-82
2020/12/12 00:31:20;;;;;;;44.10;24.43;;;;;;;-2.24;91.91;95452.58;1685654;84;21182;-82
2020/12/12 00:33:48;;;;;;;44.63;24.63;;;;;;;-2.26;91.88;95454.59;1710102;84;21154;-82
2020/12/12 00:36:17;;;;;;;45.08;26.17;;;;;;;-2.23;92.09;95451.56;1710076;84;21559;-82
2020/12/12 00:38:44;;;;;;;41.42;23.45;;;;;;;-2.22;92.14;95450.55;1709991;84;21163;-82
2020/12/12 00:41:11;;;;;;;39.08;22.52;;;;;;;-2.21;92.16;95450.83;1710062;82;21592;-81
2020/12/12 00:43:38;;;;;;;42.75;24.63;;;;;;;-2.22;92.20;95450.55;1710039;84;21159;-81
2020/12/12 00:46:05;;;;;;;54.25;27.55;;;;;;;-2.23;92.37;95448.97;1710162;84;21170;-82
2020/12/12 00:48:32;;;;;;;46.10;25.05;;;;;;;-2.23;92.33;95451.56;1710108;84;21523;-81
2020/12/12 00:50:59;;;;;;;36.65;21.23;;;;;;;-2.23;92.34;95452.36;1710066;82;21202;-82
2020/12/12 00:53:26;;;;;;;46.08;25.27;;;;;;;-2.21;92.50;95449.53;1710051;84;21179;-82
2020/12/12 00:55:56;;;;;;;36.90;23.25;;;;;;;-2.24;92.44;95438.30;1710136;84;21186;-81
2020/12/12 00:58:23;;;;;;;30.77;16.45;;;;;;;-2.25;92.44;95445.78;1710150;84;21127;-81
2020/12/12 01:00:50;;;;;;;34.13;18.75;;;;;;;-2.36;92.56;95420.13;1710143;82;21550;-81
2020/12/12 01:03:17;;;;;;;36.85;20.45;;;;;;;-2.19;92.73;95442.30;1710021;84;21158;-82
2020/12/12 01:05:45;;;;;;;38.00;20.72;;;;;;;-2.20;92.77;95436.83;1710083;84;21131;-81
2020/12/12 01:08:12;;;;;;;36.88;21.50;;;;;;;-2.22;92.63;95437.06;1710075;84;21546;-82
2020/12/12 01:10:40;;;;;;;38.08;20.25;;;;;;;-2.27;92.30;95437.44;1710079;82;21675;-82
2020/12/12 01:13:07;;;;;;;36.50;19.30;;;;;;;-2.36;92.20;95438.30;1709945;84;21654;-81
2020/12/12 01:15:34;;;;;;;32.78;19.37;;;;;;;-2.37;92.21;95430.74;1710049;84;21186;-81
2020/12/12 01:18:02;;;;;;;31.93;19.80;;;;;;;-2.35;92.17;95440.39;1710088;84;21538;-82
2020/12/12 01:20:29;;;;;;;29.10;17.42;;;;;;;-2.30;92.28;95437.89;1710003;82;21515;-81
2020/12/12 01:22:56;;;;;;;32.40;18.75;;;;;;;-2.29;92.14;95433.77;1709990;84;21649;-81
2020/12/12 01:25:23;;;;;;;28.07;14.78;;;;;;;-2.24;92.29;95437.01;1710075;84;21155;-81
2020/12/12 01:27:50;;;;;;;20.12;12.13;;;;;;;-2.17;92.43;95425.98;1710025;84;21132;-81
2020/12/12 01:30:17;;;;;;;32.55;16.45;;;;;;;-2.06;92.56;95426.48;1710118;82;21171;-81
2020/12/12 01:32:44;;;;;;;31.85;17.60;;;;;;;-1.98;92.58;95418.33;1710219;84;21131;-82
2020/12/12 01:35:12;;;;;;;35.58;18.70;;;;;;;-1.94;92.49;95427.27;1709931;84;21182;-81
2020/12/12 01:37:39;;;;;;;27.73;16.48;;;;;;;-1.95;92.41;95420.50;1710255;84;21174;-81
2020/12/12 01:40:06;;;;;;;29.40;17.50;;;;;;;-1.96;92.35;95416.31;1710089;82;21167;-82
2020/12/12 01:42:33;;;;;;;31.90;16.17;;;;;;;-1.96;92.26;95415.53;1710028;84;21155;-81
2020/12/12 01:45:00;;;;;;;28.85;15.83;;;;;;;-1.96;92.22;95413.72;1710046;84;21187;-82
2020/12/12 01:47:29;;;;;;;27.22;13.45;;;;;;;-1.99;91.98;95415.97;1709982;84;21313;-81
2020/12/12 01:49:56;;;;;;;23.05;14.20;;;;;;;-2.05;91.79;95421.57;1710063;82;21193;-81
2020/12/12 01:52:24;;;;;;;20.65;11.35;;;;;;;-2.10;91.65;95422.27;1710115;84;21174;-81
2020/12/12 01:54:52;;;;;;;18.67;10.98;;;;;;;-2.14;91.52;95416.44;1709976;84;21143;-81
2020/12/12 01:57:22;;;;;;;18.40;10.08;;;;;;;-2.17;91.39;95415.09;1710119;84;21147;-82
2020/12/12 01:59:51;;;;;;;21.17;10.70;;;;;;;-2.18;91.30;95414.02;1710132;82;21174;-81
2020/12/12 02:02:21;;;;;;;22.85;13.62;;;;;;;-2.19;91.24;95415.04;1710008;84;21511;-81
2020/12/12 02:04:54;;;;;;;20.50;11.83;;;;;;;-2.26;91.10;95418.25;1710193;84;21135;-81
2020/12/12 02:07:23;;;;;;;16.90;10.18;;;;;;;-2.28;91.09;95424.97;1706151;84;21135;-81
2020/12/12 02:09:50;;;;;;;20.12;11.63;;;;;;;-2.30;91.13;95422.32;1679378;84;21163;-81
2020/12/12 02:12:18;;;;;;;20.17;11.75;;;;;;;-2.32;91.12;95419.16;1679538;84;21309;-81
2020/12/12 02:14:45;;;;;;;22.62;12.85;;;;;;;-2.36;91.18;95414.16;1679461;84;21309;-81
2020/12/12 02:17:13;;;;;;;20.82;11.53;;;;;;;-2.37;91.22;95408.17;1679611;85;21313;-82
2020/12/12 02:19:40;;;;;;;23.60;11.85;;;;;;;-2.34;91.33;95411.61;1679447;84;21318;-81
2020/12/12 02:22:08;;;;;;;23.18;10.48;;;;;;;-2.32;91.40;95426.44;1679745;84;21168;-81
2020/12/12 02:24:36;;;;;;;19.90;11.78;;;;;;;-2.49;90.97;95424.25;1679510;85;21167;-82
2020/12/12 02:27:06;;;;;;;26.85;13.50;;;;;;;-2.65;90.68;95422.33;1679568;85;21297;-81
2020/12/12 02:29:45;;;;;;;27.87;14.35;;;;;;;-2.69;90.82;95418.06;1679796;84;21139;-81
2020/12/12 02:32:10;;;;;;;27.73;14.30;;;;;;;-2.63;91.05;95421.08;1679771;85;21156;-81
2020/12/12 02:34:37;;;;;;;27.35;15.70;;;;;;;-2.58;91.14;95413.41;1679531;85;21519;-81
2020/12/12 02:37:05;;;;;;;28.42;13.35;;;;;;;-2.54;91.19;95411.93;1679554;84;21322;-81
2020/12/12 02:39:32;;;;;;;33.95;17.27;;;;;;;-2.54;91.12;95410.63;1679509;84;21172;-81
2020/12/12 02:41:59;;;;;;;28.45;15.55;;;;;;;-2.60;91.00;95408.95;1679519;85;21286;-81
2020/12/12 02:44:27;;;;;;;25.75;15.15;;;;;;;-2.68;90.83;95411.86;1679513;84;21311;-81
2020/12/12 02:46:54;;;;;;;22.50;12.15;;;;;;;-2.82;90.73;95408.69;1679561;85;21330;-81
2020/12/12 02:49:21;;;;;;;22.55;12.55;;;;;;;-2.79;90.92;95407.48;1679488;84;21179;-81
2020/12/12 02:51:48;;;;;;;24.00;12.45;;;;;;;-2.70;91.05;95418.58;1660027;85;21159;-81
2020/12/12 02:54:15;;;;;;;19.60;10.98;;;;;;;-2.65;91.12;95421.81;1679660;85;21155;-81
2020/12/12 02:56:42;;;;;;;18.82;9.98;;;;;;;-2.61;91.07;95413.86;1679606;84;21580;-81
2020/12/12 02:59:09;;;;;;;21.70;11.63;;;;;;;-2.60;91.05;95408.95;1684309;84;21168;-81
2020/12/12 03:01:41;;;;;;;19.12;10.82;;;;;;;-2.57;91.00;95408.49;1707890;84;21163;-81
2020/12/12 03:04:10;;;;;;;21.23;11.30;;;;;;;-2.54;90.96;95405.45;1707814;84;21480;-81
2020/12/12 03:06:43;;;;;;;28.98;13.18;;;;;;;-2.50;90.92;95404.51;1707999;84;21155;-81
2020/12/12 03:09:06;;;;;;;26.10;14.10;;;;;;;-2.49;90.83;95413.36;1730420;82;21120;-81
2020/12/12 03:11:33;;;;;;;27.50;13.60;;;;;;;-2.47;90.83;95413.92;1737107;82;21535;-81
2020/12/12 03:14:00;;;;;;;28.73;14.58;;;;;;;-2.46;90.79;95414.20;1710085;84;21554;-81
2020/12/12 03:16:27;;;;;;;27.40;14.95;;;;;;;-2.49;90.71;95419.84;1710134;84;21562;-81
2020/12/12 03:18:54;;;;;;;28.47;14.45;;;;;;;-2.50;90.66;95411.78;1710137;84;21522;-81
2020/12/12 03:21:21;;;;;;;27.30;16.27;;;;;;;-2.51;90.59;95415.91;1710181;82;21539;-81
2020/12/12 03:23:48;;;;;;;29.55;15.70;;;;;;;-2.54;90.41;95415.83;1710136;84;21561;-81
2020/12/12 03:26:15;;;;;;;27.67;15.90;;;;;;;-2.54;90.45;95413.23;1710328;84;21535;-81
2020/12/12 03:28:42;;;;;;;28.05;14.93;;;;;;;-2.47;90.59;95417.02;1710054;84;21158;-81
2020/12/12 03:31:09;;;;;;;29.40;15.95;;;;;;;-2.47;90.48;95415.22;1710097;82;21167;-81
2020/12/12 03:33:36;;;;;;;30.80;15.43;;;;;;;-2.46;90.45;95410.31;1710010;84;21147;-81
2020/12/12 03:36:03;;;;;;;29.07;16.17;;;;;;;-2.44;90.46;95409.57;1710118;84;21167;-81
2020/12/12 03:38:30;;;;;;;26.40;15.05;;;;;;;-2.42;90.41;95408.05;1710234;84;21159;-81
2020/12/12 03:40:57;;;;;;;29.75;16.20;;;;;;;-2.41;90.38;95405.73;1710047;82;21159;-81
2020/12/12 03:43:25;;;;;;;24.30;13.38;;;;;;;-2.41;90.27;95405.73;1710136;84;21174;-81
2020/12/12 03:45:52;;;;;;;25.70;15.65;;;;;;;-2.41;90.15;95407.81;1710015;84;21139;-81
2020/12/12 03:48:19;;;;;;;27.87;15.15;;;;;;;-2.57;89.88;95405.90;1710328;84;21498;-81
2020/12/12 03:50:46;;;;;;;28.75;14.63;;;;;;;-2.71;89.75;95408.43;1710095;82;21514;-81
2020/12/12 03:53:13;;;;;;;27.70;15.68;;;;;;;-2.78;89.77;95398.68;1710378;84;21151;-81
2020/12/12 03:55:40;;;;;;;30.37;15.72;;;;;;;-2.80;89.91;95398.13;1710067;84;21194;-81
2020/12/12 03:58:07;;;;;;;22.40;13.70;;;;;;;-2.81;89.99;95396.03;1710204;84;21150;-81
2020/12/12 04:00:34;;;;;;;18.45;11.03;;;;;;;-2.75;90.16;95391.74;1710087;82;21522;-81
2020/12/12 04:03:01;;;;;;;24.12;12.58;;;;;;;-2.74;90.12;95385.54;1710098;84;21170;-81
2020/12/12 04:05:28;;;;;;;25.52;12.65;;;;;;;-2.85;90.26;95389.69;1710079;84;21127;-81
2020/12/12 04:07:55;;;;;;;31.17;17.32;;;;;;;-2.96;90.48;95386.58;1710009;84;21286;-81
2020/12/12 04:10:22;;;;;;;25.80;15.75;;;;;;;-3.02;90.70;95377.11;1710059;82;21163;-81
2020/12/12 04:12:49;;;;;;;26.45;15.32;;;;;;;-2.99;90.86;95380.03;1710014;84;21175;-81
2020/12/12 04:15:16;;;;;;;25.90;13.40;;;;;;;-2.94;90.94;95381.19;1710090;84;21162;-81
2020/12/12 04:17:43;;;;;;;22.45;13.22;;;;;;;-2.89;90.99;95377.41;1710102;84;21128;-81
2020/12/12 04:20:10;;;;;;;25.48;13.30;;;;;;;-2.88;90.83;95373.80;1710136;82;21170;-81
2020/12/12 04:22:37;;;;;;;23.70;12.98;;;;;;;-2.89;90.65;95374.31;1710052;84;21119;-81
2020/12/12 04:25:04;;;;;;;29.05;13.75;;;;;;;-2.91;90.58;95368.56;1710047;84;21516;-81
2020/12/12 04:27:32;;;;;;;23.95;11.65;;;;;;;-2.86;90.63;95362.19;1710117;84;21144;-81
2020/12/12 04:29:59;;;;;;;22.90;12.30;;;;;;;-2.79;90.65;95364.69;1709995;82;21136;-81
2020/12/12 04:32:26;;;;;;;19.60;11.57;;;;;;;-2.75;90.58;95361.41;1710054;84;21175;-81
2020/12/12 04:34:54;;;;;;;26.15;14.73;;;;;;;-2.78;90.37;95361.08;1710135;84;21151;-81
2020/12/12 04:37:21;;;;;;;17.48;10.10;;;;;;;-2.87;90.50;95358.52;1710091;84;21175;-81
2020/12/12 04:39:48;;;;;;;16.67;9.25;;;;;;;-2.92;90.84;95354.02;1710002;82;21135;-81
2020/12/12 04:42:18;;;;;;;19.45;9.63;;;;;;;-2.85;91.31;95359.09;1710113;84;21520;-81
2020/12/12 04:44:47;;;;;;;18.82;9.40;;;;;;;-2.77;91.37;95369.14;1710041;84;21214;-81
2020/12/12 04:47:14;;;;;;;16.32;8.65;;;;;;;-2.71;91.59;95365.63;1710133;84;21163;-81
2020/12/12 04:49:41;;;;;;;19.98;10.30;;;;;;;-2.59;91.88;95364.34;1685647;82;21481;-81
2020/12/12 04:52:08;;;;;;;23.20;13.13;;;;;;;-2.52;91.88;95370.22;1710065;84;21167;-81
2020/12/12 04:54:36;;;;;;;22.45;13.43;;;;;;;-2.44;91.93;95372.45;1710007;84;21159;-81
2020/12/12 04:57:07;;;;;;;24.37;12.47;;;;;;;-2.38;91.89;95366.88;1710026;84;21190;-81
2020/12/12 04:59:35;;;;;;;23.95;11.60;;;;;;;-2.33;91.80;95368.28;1710073;82;21325;-81
2020/12/12 05:02:04;;;;;;;14.50;9.35;;;;;;;-2.30;91.72;95367.81;1710077;84;21175;-81
2020/12/12 05:04:31;;;;;;;18.62;11.25;;;;;;;-2.28;91.61;95366.56;1710322;84;21158;-81
2020/12/12 05:06:58;;;;;;;21.33;12.40;;;;;;;-2.27;91.41;95372.55;1710100;84;21304;-81
2020/12/12 05:09:27;;;;;;;23.87;13.65;;;;;;;-2.33;91.15;95379.95;1709941;82;21215;-81
2020/12/12 05:11:55;;;;;;;24.20;11.18;;;;;;;-2.41;90.94;95383.16;1709980;84;21166;-81
2020/12/12 05:14:22;;;;;;;22.30;12.55;;;;;;;-2.46;90.71;95381.77;1709999;84;21337;-81
2020/12/12 05:16:54;;;;;;;23.18;12.33;;;;;;;-2.53;90.60;95382.91;1709997;84;21191;-81
2020/12/12 05:19:19;;;;;;;25.12;13.28;;;;;;;-2.61;90.51;95387.13;1685848;84;21546;-81
2020/12/12 05:21:55;;;;;;;22.17;12.15;;;;;;;-2.66;90.45;95387.02;1685601;84;21573;-81
2020/12/12 05:24:26;;;;;;;19.20;10.95;;;;;;;-2.68;90.39;95380.73;1709997;84;21108;-81
2020/12/12 05:27:01;;;;;;;20.70;11.80;;;;;;;-2.69;90.39;95382.54;1710350;84;21515;-81
2020/12/12 05:29:29;;;;;;;23.02;13.15;;;;;;;-2.69;90.39;95382.54;1710079;82;21657;-81
2020/12/12 05:31:57;;;;;;;22.75;12.20;;;;;;;-2.58;90.89;95386.16;1709998;84;21526;-81
2020/12/12 05:34:27;;;;;;;22.27;11.30;;;;;;;-2.47;91.09;95380.70;1710003;84;21154;-81
2020/12/12 05:36:55;;;;;;;21.35;12.43;;;;;;;-2.42;91.19;95380.28;1709965;84;21175;-81
2020/12/12 05:39:23;;;;;;;37.13;19.20;;;;;;;-2.40;91.26;95378.76;1710050;84;21190;-81
2020/12/12 05:41:51;;;;;;;52.90;27.77;;;;;;;-2.54;90.56;95382.60;1709875;84;21145;-81
2020/12/12 05:44:20;;;;;;;164.80;95.07;;;;;;;-2.75;90.21;95380.08;1710033;84;21495;-81
2020/12/12 05:46:47;;;;;;;86.82;48.40;;;;;;;-2.92;89.83;95379.16;1710136;84;21166;-81
2020/12/12 05:49:15;;;;;;;76.07;49.27;;;;;;;-2.97;89.74;95375.92;1710029;84;21162;-81
2020/12/12 05:51:42;;;;;;;73.62;44.83;;;;;;;-3.00;89.61;95382.86;1710053;82;21530;-81
2020/12/12 05:54:09;;;;;;;60.48;34.43;;;;;;;-3.04;89.43;95382.52;1710098;84;21511;-81
2020/12/12 05:56:36;;;;;;;39.40;22.67;;;;;;;-3.07;89.29;95386.86;1709884;84;21550;-81
2020/12/12 05:59:04;;;;;;;34.83;21.10;;;;;;;-3.12;89.16;95394.49;1710103;84;21158;-81
2020/12/12 06:01:33;;;;;;;32.38;18.25;;;;;;;-3.12;89.15;95394.49;1710056;82;21551;-81
2020/12/12 06:04:11;;;;;;;36.50;20.68;;;;;;;-3.16;89.16;95393.36;1685656;84;21170;-81
2020/12/12 06:06:45;;;;;;;38.42;22.37;;;;;;;-3.07;89.63;95385.56;1710094;84;21142;-81
2020/12/12 06:09:15;;;;;;;27.35;16.12;;;;;;;-3.05;89.65;95395.70;1697311;84;21179;-81
2020/12/12 06:11:45;;;;;;;26.27;15.03;;;;;;;-3.02;89.94;95399.93;1679469;84;21620;-81
2020/12/12 06:14:13;;;;;;;;;;;;;;;-3.02;89.96;95399.14;1681899;84;21677;-81
2020/12/12 06:16:43;;;;;;;26.25;13.70;;;;;;;-3.00;90.02;95399.20;1679410;85;20127;-81
2020/12/12 06:19:16;;;;;;;24.32;14.15;;;;;;;-3.03;90.26;95400.95;1679494;85;21310;-81
2020/12/12 06:21:47;;;;;;;20.45;11.08;;;;;;;-2.97;90.60;95400.55;1679448;84;21305;-81
2020/12/12 06:24:16;;;;;;;;;;;;;;;-2.82;90.89;95403.50;1681854;84;21139;-81
2020/12/12 06:27:09;;;;;;;26.93;13.30;;;;;;;-2.75;90.88;95398.23;1679241;85;20222;-81
2020/12/12 06:29:44;;;;;;;18.35;11.70;;;;;;;-2.70;90.88;95404.81;1678871;84;21313;-81
2020/12/12 06:32:17;;;;;;;22.30;12.68;;;;;;;-2.74;90.61;95401.89;1679484;85;21159;-81
2020/12/12 06:34:52;;;;;;;24.47;12.50;;;;;;;-2.78;90.61;95396.09;1679339;85;21148;-81
2020/12/12 06:37:37;;;;;;;26.70;14.23;;;;;;;-2.82;90.56;95389.23;1679374;85;21180;-80
2020/12/12 06:40:08;;;;;;;24.52;13.72;;;;;;;-2.80;90.55;95395.53;1679056;84;21156;-80
2020/12/12 06:42:40;;;;;;;26.75;13.62;;;;;;;-2.74;90.53;95397.21;1679306;84;21662;-80
2020/12/12 06:45:22;;;;;;;23.60;13.30;;;;;;;-2.71;90.44;95395.45;1679466;85;21290;-80
2020/12/12 06:47:53;;;;;;;24.00;13.43;;;;;;;-2.71;90.29;95390.27;1679347;84;21318;-81
2020/12/12 06:50:32;;;;;;;23.15;13.15;;;;;;;-2.74;90.05;95393.32;1679597;84;21202;-81
2020/12/12 06:52:59;;;;;;;23.05;13.00;;;;;;;-2.77;89.89;95400.27;1679328;85;21302;-81
2020/12/12 06:55:26;;;;;;;25.17;13.15;;;;;;;-2.75;89.79;95398.23;1679430;85;21140;-81
2020/12/12 06:57:56;;;;;;;26.55;14.45;;;;;;;-2.76;89.68;95397.95;1679402;85;21298;-81
2020/12/12 07:00:35;;;;;;;22.85;14.50;;;;;;;-2.74;89.56;95389.43;1679626;84;21136;-81
2020/12/12 07:03:06;;;;;;;27.90;15.03;;;;;;;-2.72;89.41;95388.69;1679278;84;21194;-81
2020/12/12 07:05:39;;;;;;;25.72;14.28;;;;;;;-2.75;89.09;95391.74;1679491;84;21318;-81
2020/12/12 07:08:09;;;;;;;56.15;33.88;;;;;;;-2.60;89.19;95389.49;1679345;85;21159;-81
2020/12/12 07:10:43;;;;;;;62.50;40.20;;;;;;;-2.23;89.10;95390.05;1679524;84;21651;-81
2020/12/12 07:13:12;;;;;;;74.27;50.98;;;;;;;-1.51;87.92;95399.53;1678906;85;21540;-81
2020/12/12 07:15:39;;;;;;;67.82;43.45;;;;;;;-1.51;87.92;95330.66;1679545;85;21171;-81
2020/12/12 07:18:13;;;;;;;55.98;36.33;;;;;;;-0.68;87.30;95395.48;1679527;84;21155;-81
2020/12/12 07:20:46;;;;;;;63.55;41.60;;;;;;;-0.68;87.30;95395.48;1679565;84;21559;-81
2020/12/12 07:23:13;;;;;;;57.90;38.15;;;;;;;-0.42;86.58;95392.75;1679407;84;21155;-80
2020/12/12 07:25:40;;;;;;;66.70;42.90;;;;;;;-0.09;85.91;95394.49;1679515;84;21302;-80
2020/12/12 07:28:07;;;;;;;61.80;43.60;;;;;;;-0.20;84.64;95392.77;1679476;85;21305;-80
2020/12/12 07:30:34;;;;;;;62.53;42.70;;;;;;;-0.16;84.02;95393.07;1679478;84;21164;-80
2020/12/12 07:33:03;;;;;;;61.55;41.53;;;;;;;-0.17;83.38;95392.28;1679648;85;21175;-80
2020/12/12 07:35:32;;;;;;;57.30;37.58;;;;;;;-0.58;82.16;95388.83;1679434;85;21168;-80
2020/12/12 07:38:06;;;;;;;51.98;34.53;;;;;;;-0.79;82.47;95392.44;1679465;85;21345;-80
2020/12/12 07:40:37;;;;;;;51.18;33.73;;;;;;;-0.71;83.28;95397.23;1679475;84;21306;-81
2020/12/12 07:43:09;;;;;;;50.58;34.60;;;;;;;-0.27;84.16;95395.29;1679370;84;21145;-81
2020/12/12 07:45:52;;;;;;;40.58;27.27;;;;;;;0.12;84.53;95395.52;1679628;85;21503;-81
2020/12/12 07:48:12;;;;;;;43.98;29.55;;;;;;;0.51;84.55;95395.45;1679572;85;21313;-81
2020/12/12 07:50:39;;;;;;;43.23;28.45;;;;;;;0.69;84.12;95400.86;1679518;84;21534;-81
2020/12/12 07:53:13;;;;;;;45.28;32.67;;;;;;;0.88;83.84;95400.29;1679405;84;21294;-81
2020/12/12 07:55:43;;;;;;;52.90;34.98;;;;;;;1.05;83.72;95401.48;1679532;84;21662;-81
2020/12/12 07:58:20;;;;;;;43.30;28.10;;;;;;;1.18;83.29;95402.38;1679608;84;21302;-81
2020/12/12 08:00:58;;;;;;;45.35;30.43;;;;;;;1.00;81.97;95404.58;1679509;84;21152;-81
2020/12/12 08:03:26;;;;;;;44.95;32.98;;;;;;;0.66;81.99;95395.63;1676281;85;21317;-80
2020/12/12 08:06:09;;;;;;;52.85;33.30;;;;;;;0.75;82.77;95394.67;1679523;85;21657;-81
2020/12/12 08:08:38;;;;;;;46.77;31.37;;;;;;;0.84;82.84;95389.27;1679034;84;21156;-81
2020/12/12 08:11:07;;;;;;;44.23;29.67;;;;;;;0.77;82.70;95396.52;1679439;84;21262;-81
2020/12/12 08:13:35;;;;;;;30.20;18.30;;;;;;;0.70;82.71;95398.00;1679604;84;21306;-81
2020/12/12 08:16:09;;;;;;;33.88;21.07;;;;;;;0.70;82.94;95399.82;1679415;84;21321;-81
2020/12/12 08:18:35;;;;;;;35.98;23.55;;;;;;;0.80;83.62;95400.72;1679392;85;21662;-81
2020/12/12 08:21:15;;;;;;;43.10;27.75;;;;;;;1.18;84.66;95404.99;1679481;84;21705;-81
2020/12/12 08:23:44;;;;;;;33.98;22.58;;;;;;;1.42;84.55;95403.36;1679458;85;21551;-82
2020/12/12 08:26:21;;;;;;;47.80;31.40;;;;;;;1.34;83.80;95395.98;1679444;85;21163;-82
2020/12/12 08:28:49;;;;;;;54.38;35.48;;;;;;;1.10;82.48;95400.21;1678240;85;21151;-82
2020/12/12 08:31:21;;;;;;;75.67;46.83;;;;;;;0.75;81.23;95396.77;1679619;84;21167;-82
2020/12/12 08:33:56;;;;;;;69.10;42.20;;;;;;;0.45;81.00;95399.05;1679391;84;21144;-82
2020/12/12 08:36:28;;;;;;;58.92;39.50;;;;;;;0.25;80.87;95408.20;1679358;85;21311;-82
2020/12/12 08:39:02;;;;;;;57.10;36.88;;;;;;;-0.15;80.30;95407.16;1679512;84;21537;-82
2020/12/12 08:41:36;;;;;;;54.93;34.90;;;;;;;-0.26;80.88;95406.77;1679145;84;21548;-82
2020/12/12 08:44:05;;;;;;;59.90;36.25;;;;;;;-0.33;81.23;95404.31;1679326;85;21116;-82
2020/12/12 08:46:33;;;;;;;59.50;36.98;;;;;;;-0.44;81.26;95408.30;1679416;85;21310;-82
2020/12/12 08:49:00;;;;;;;52.33;33.80;;;;;;;-0.46;81.48;95405.16;1679454;84;21176;-82
2020/12/12 08:51:31;;;;;;;54.70;33.60;;;;;;;-0.50;81.56;95407.97;1679415;84;21170;-82
2020/12/12 08:53:59;;;;;;;56.13;33.70;;;;;;;-0.45;81.80;95405.42;1679310;85;21519;-82
2020/12/12 08:56:31;;;;;;;50.58;31.85;;;;;;;-0.41;81.77;95403.43;1679636;85;21185;-82
2020/12/12 08:59:02;;;;;;;52.05;30.90;;;;;;;-0.30;81.96;95400.44;1679433;85;21695;-83
2020/12/12 09:01:42;;;;;;;52.23;33.10;;;;;;;-0.33;81.75;95398.31;1679629;84;21167;-82
2020/12/12 09:04:15;;;;;;;49.00;32.40;;;;;;;-0.42;81.74;95397.95;1679381;84;21278;-82
2020/12/12 09:06:54;;;;;;;46.18;30.68;;;;;;;-0.30;82.25;95401.22;1679472;84;21149;-82
2020/12/12 09:09:31;;;;;;;52.62;31.62;;;;;;;-0.05;82.68;95404.70;1682992;84;21321;-83
2020/12/12 09:12:08;;;;;;;49.33;31.52;;;;;;;0.24;82.82;95398.02;1710072;84;21104;-82
2020/12/12 09:14:39;;;;;;;48.50;31.17;;;;;;;0.30;82.30;95400.97;1709996;84;21112;-82
2020/12/12 09:17:09;;;;;;;52.40;33.28;;;;;;;0.31;82.17;95393.42;1709974;84;21171;-83
2020/12/12 09:19:38;;;;;;;94.75;50.10;;;;;;;0.41;82.37;95396.64;1709870;82;21519;-82
2020/12/12 09:22:10;;;;;;;56.37;35.23;;;;;;;0.52;82.27;95395.21;1709976;84;21158;-83
2020/12/12 09:24:39;;;;;;;55.23;34.20;;;;;;;0.58;82.05;95391.64;1709911;84;21171;-83
2020/12/12 09:27:08;;;;;;;48.73;32.03;;;;;;;0.53;81.44;95394.17;1710065;84;21506;-82
2020/12/12 09:29:36;;;;;;;50.40;33.42;;;;;;;0.52;81.60;95392.61;1710163;82;21127;-83
2020/12/12 09:32:03;;;;;;;50.60;33.80;;;;;;;0.56;81.31;95393.71;1709914;84;21151;-82
2020/12/12 09:34:31;;;;;;;49.98;33.33;;;;;;;0.61;81.35;95392.18;1709863;84;21193;-83
2020/12/12 09:36:58;;;;;;;56.63;34.23;;;;;;;0.57;81.16;95387.98;1709941;84;21151;-82
2020/12/12 09:39:25;;;;;;;55.52;33.95;;;;;;;0.42;80.90;95385.18;1709895;82;21167;-82
2020/12/12 09:41:59;;;;;;;56.02;32.95;;;;;;;0.28;80.97;95388.19;1710033;84;21555;-82
2020/12/12 09:44:30;;;;;;;51.70;34.60;;;;;;;0.18;81.10;95386.75;1709916;84;21188;-83
2020/12/12 09:46:57;;;;;;;57.50;34.90;;;;;;;0.14;81.37;95386.16;1710271;84;21171;-83
2020/12/12 09:49:24;;;;;;;55.25;33.67;;;;;;;0.22;81.85;95387.05;1710022;82;21139;-83
2020/12/12 09:51:51;;;;;;;59.18;38.10;;;;;;;0.31;81.90;95388.73;1710039;84;21158;-82
2020/12/12 09:54:19;;;;;;;62.78;38.95;;;;;;;0.55;82.07;95385.59;1710113;84;21171;-82
2020/12/12 09:56:49;;;;;;;62.65;37.30;;;;;;;0.55;82.07;95385.59;1710353;84;21179;-83
2020/12/12 09:59:17;;;;;;;81.35;47.30;;;;;;;0.63;82.03;95380.47;1710283;84;21190;-82
2020/12/12 10:01:45;;;;;;;66.87;41.83;;;;;;;0.64;81.87;95380.73;1709964;82;21534;-82
2020/12/12 10:04:12;;;;;;;72.08;41.48;;;;;;;0.72;81.83;95373.00;1709818;84;21155;-83
2020/12/12 10:06:45;;;;;;;65.40;40.73;;;;;;;0.84;82.05;95371.80;1710300;84;21519;-83
2020/12/12 10:09:12;;;;;;;64.47;40.58;;;;;;;0.86;81.48;95368.96;1709917;84;21155;-83
2020/12/12 10:11:39;;;;;;;66.92;39.23;;;;;;;0.80;81.35;95369.41;1709826;84;21200;-82
2020/12/12 10:14:07;;;;;;;73.92;43.87;;;;;;;0.80;80.93;95371.23;1709881;84;21167;-82
2020/12/12 10:16:34;;;;;;;77.08;49.93;;;;;;;0.66;80.35;95377.36;1709930;84;21163;-83
2020/12/12 10:19:02;;;;;;;78.02;45.30;;;;;;;0.45;80.06;95377.69;1709957;84;21252;-83
2020/12/12 10:21:29;;;;;;;73.22;43.33;;;;;;;0.23;79.85;95383.41;1709888;82;21192;-83
2020/12/12 10:23:56;;;;;;;72.80;42.85;;;;;;;-0.02;80.23;95389.09;1709856;84;21143;-82
2020/12/12 10:26:22;;;;;;;69.15;42.25;;;;;;;0.01;80.78;95391.23;1709933;84;21172;-83
2020/12/12 10:28:49;;;;;;;64.27;42.45;;;;;;;0.10;80.98;95394.19;1710071;84;21534;-83
2020/12/12 10:31:18;;;;;;;68.25;44.13;;;;;;;0.22;80.88;95388.36;1710081;82;21527;-83
2020/12/12 10:33:46;;;;;;;69.12;42.23;;;;;;;0.22;80.82;95391.75;1709808;84;21696;-83
2020/12/12 10:36:13;;;;;;;66.07;41.95;;;;;;;0.37;80.86;95395.05;1710157;84;21144;-83
2020/12/12 10:38:40;;;;;;;75.32;46.00;;;;;;;0.29;80.60;95397.58;1709954;84;21202;-83
2020/12/12 10:41:12;;;;;;;76.02;45.15;;;;;;;0.31;80.79;95399.94;1709924;82;21163;-83
2020/12/12 10:43:40;;;;;;;76.72;42.85;;;;;;;0.35;80.90;95399.72;1709829;84;21191;-82
2020/12/12 10:46:07;;;;;;;65.52;38.95;;;;;;;0.40;80.93;95398.98;1710294;84;21512;-83
2020/12/12 10:48:35;;;;;;;75.70;46.48;;;;;;;0.42;80.62;95387.27;1709997;84;21150;-83
2020/12/12 10:51:02;;;;;;;82.30;45.67;;;;;;;0.37;80.70;95392.44;1710286;82;21229;-83
2020/12/12 10:53:29;;;;;;;77.15;42.33;;;;;;;0.33;80.66;95399.17;1710033;84;21158;-83
2020/12/12 10:55:56;;;;;;;73.92;42.80;;;;;;;0.27;80.76;95393.62;1710091;84;21174;-83
2020/12/12 10:58:23;;;;;;;75.12;42.78;;;;;;;0.33;81.10;95397.87;1710595;84;21159;-83
2020/12/12 11:00:52;;;;;;;80.77;43.78;;;;;;;0.48;81.43;95394.13;1709959;82;21166;-83
2020/12/12 11:03:19;;;;;;;71.30;42.30;;;;;;;0.64;81.30;95398.99;1710118;84;21136;-83
2020/12/12 11:05:46;;;;;;;72.17;41.68;;;;;;;0.77;81.31;95395.21;1710028;84;21563;-83
2020/12/12 11:08:14;;;;;;;68.67;43.02;;;;;;;0.91;81.40;95397.70;1710127;84;21163;-83
2020/12/12 11:10:41;;;;;;;68.07;38.48;;;;;;;0.98;81.12;95397.48;1696781;82;21217;-83
2020/12/12 11:13:08;;;;;;;79.25;42.40;;;;;;;0.95;80.93;95400.08;1679579;85;21199;-83
2020/12/12 11:15:38;;;;;;;68.35;39.58;;;;;;;0.94;80.86;95401.62;1679373;84;21286;-83
2020/12/12 11:18:05;;;;;;;67.20;39.40;;;;;;;0.94;80.76;95399.81;1679711;84;21124;-83
2020/12/12 11:20:32;;;;;;;61.65;37.23;;;;;;;0.89;80.47;95398.47;1679582;84;21438;-83
2020/12/12 11:22:59;;;;;;;67.45;37.30;;;;;;;0.72;80.10;95401.69;1679424;85;21663;-83
2020/12/12 11:25:27;;;;;;;63.90;36.42;;;;;;;0.50;80.27;95398.58;1679424;84;21160;-84
2020/12/12 11:27:54;;;;;;;68.65;40.88;;;;;;;0.32;80.54;95404.64;1679884;85;21158;-83